sensor_id;sensor_type;location;lat;lon;timestamp;P1;durP1;ratioP1;P2;durP2;ratioP2
5042;SDS011;2540;50.928;6.856;2023-05-13T00:01:24;15.30;;;9.63;;
5042;SDS011;2540;50.928;6.856;2023-05-13T00:03:49;17.40;;;10.30;;
5042;SDS011;2540;50.928;6.856;2023-05-13T00:06:15;15.30;;;9.50;;
5042;SDS011;2540;50.928;6.856;2023-05-13T00:08:40;15.43;;;10.10;;
5042;SDS011;2540;50.928;6.856;2023-05-13T00:11:06;16.00;;;10.00;;
5042;SDS011;2540;50.928;6.856;2023-05-13T00:13:31;12.90;;;9.40;;
5042;SDS011;2540;50.928;6.856;2023-05-13T00:15:57;15.27;;;10.10;;
5042;SDS011;2540;50.928;6.856;2023-05-13T00:18:22;17.47;;;10.87;;
5042;SDS011;2540;50.928;6.856;2023-05-13T00:20:48;12.47;;;9.30;;
5042;SDS011;2540;50.928;6.856;2023-05-13T00:23:13;14.97;;;9.20;;
5042;SDS011;2540;50.928;6.856;2023-05-13T00:25:38;13.80;;;9.30;;
5042;SDS011;2540;50.928;6.856;2023-05-13T00:28:05;22.20;;;10.30;;
5042;SDS011;2540;50.928;6.856;2023-05-13T00:30:31;14.07;;;9.23;;
5042;SDS011;2540;50.928;6.856;2023-05-13T00:32:56;17.67;;;10.30;;
5042;SDS011;2540;50.928;6.856;2023-05-13T00:35:22;14.33;;;9.10;;
5042;SDS011;2540;50.928;6.856;2023-05-13T00:37:47;15.37;;;9.43;;
5042;SDS011;2540;50.928;6.856;2023-05-13T00:40:16;12.73;;;9.90;;
5042;SDS011;2540;50.928;6.856;2023-05-13T00:42:45;20.97;;;11.07;;
5042;SDS011;2540;50.928;6.856;2023-05-13T00:45:10;14.80;;;8.73;;
5042;SDS011;2540;50.928;6.856;2023-05-13T00:47:36;14.73;;;10.53;;
5042;SDS011;2540;50.928;6.856;2023-05-13T00:50:03;21.83;;;10.63;;
5042;SDS011;2540;50.928;6.856;2023-05-13T00:52:29;13.67;;;10.20;;
5042;SDS011;2540;50.928;6.856;2023-05-13T00:54:54;19.70;;;11.20;;
5042;SDS011;2540;50.928;6.856;2023-05-13T00:57:20;16.60;;;11.60;;
5042;SDS011;2540;50.928;6.856;2023-05-13T00:59:45;12.40;;;10.00;;
5042;SDS011;2540;50.928;6.856;2023-05-13T01:02:29;18.10;;;11.10;;
5042;SDS011;2540;50.928;6.856;2023-05-13T01:05:08;15.10;;;10.33;;
5042;SDS011;2540;50.928;6.856;2023-05-13T01:11:00;14.63;;;10.23;;
5042;SDS011;2540;50.928;6.856;2023-05-13T01:13:32;14.10;;;10.83;;
5042;SDS011;2540;50.928;6.856;2023-05-13T01:16:19;16.37;;;11.63;;
5042;SDS011;2540;50.928;6.856;2023-05-13T01:18:52;23.63;;;11.30;;
5042;SDS011;2540;50.928;6.856;2023-05-13T01:21:26;18.73;;;12.13;;
5042;SDS011;2540;50.928;6.856;2023-05-13T01:23:52;22.83;;;12.07;;
5042;SDS011;2540;50.928;6.856;2023-05-13T01:26:18;17.00;;;11.37;;
5042;SDS011;2540;50.928;6.856;2023-05-13T01:28:44;17.13;;;11.20;;
5042;SDS011;2540;50.928;6.856;2023-05-13T01:31:10;20.63;;;13.47;;
5042;SDS011;2540;50.928;6.856;2023-05-13T01:33:36;23.30;;;12.20;;
5042;SDS011;2540;50.928;6.856;2023-05-13T01:36:02;27.23;;;13.37;;
5042;SDS011;2540;50.928;6.856;2023-05-13T01:38:27;21.20;;;13.20;;
5042;SDS011;2540;50.928;6.856;2023-05-13T01:40:53;22.67;;;14.50;;
5042;SDS011;2540;50.928;6.856;2023-05-13T01:43:20;21.43;;;13.67;;
5042;SDS011;2540;50.928;6.856;2023-05-13T01:45:45;22.10;;;13.37;;
5042;SDS011;2540;50.928;6.856;2023-05-13T01:48:10;21.80;;;13.63;;
5042;SDS011;2540;50.928;6.856;2023-05-13T01:50:36;18.27;;;13.27;;
5042;SDS011;2540;50.928;6.856;2023-05-13T01:53:01;20.30;;;13.63;;
5042;SDS011;2540;50.928;6.856;2023-05-13T01:55:27;16.07;;;11.83;;
5042;SDS011;2540;50.928;6.856;2023-05-13T01:57:52;19.37;;;13.37;;
5042;SDS011;2540;50.928;6.856;2023-05-13T02:00:17;19.00;;;13.40;;
5042;SDS011;2540;50.928;6.856;2023-05-13T02:02:43;24.43;;;14.40;;
5042;SDS011;2540;50.928;6.856;2023-05-13T02:05:08;20.67;;;13.63;;
5042;SDS011;2540;50.928;6.856;2023-05-13T02:07:34;19.23;;;13.50;;
5042;SDS011;2540;50.928;6.856;2023-05-13T02:09:59;17.50;;;11.87;;
5042;SDS011;2540;50.928;6.856;2023-05-13T02:12:25;15.27;;;11.70;;
5042;SDS011;2540;50.928;6.856;2023-05-13T02:14:52;17.30;;;12.27;;
5042;SDS011;2540;50.928;6.856;2023-05-13T02:17:18;17.97;;;12.07;;
5042;SDS011;2540;50.928;6.856;2023-05-13T02:19:44;18.87;;;12.43;;
5042;SDS011;2540;50.928;6.856;2023-05-13T02:22:09;21.77;;;13.20;;
5042;SDS011;2540;50.928;6.856;2023-05-13T02:24:35;22.70;;;13.80;;
5042;SDS011;2540;50.928;6.856;2023-05-13T02:27:04;22.50;;;12.80;;
5042;SDS011;2540;50.928;6.856;2023-05-13T02:29:29;20.37;;;12.70;;
5042;SDS011;2540;50.928;6.856;2023-05-13T02:31:55;18.20;;;12.50;;
5042;SDS011;2540;50.928;6.856;2023-05-13T02:36:52;17.20;;;12.00;;
5042;SDS011;2540;50.928;6.856;2023-05-13T02:39:17;17.13;;;12.73;;
5042;SDS011;2540;50.928;6.856;2023-05-13T02:41:43;20.40;;;13.07;;
5042;SDS011;2540;50.928;6.856;2023-05-13T02:44:08;19.47;;;12.93;;
5042;SDS011;2540;50.928;6.856;2023-05-13T02:46:34;21.80;;;14.23;;
5042;SDS011;2540;50.928;6.856;2023-05-13T02:49:00;20.50;;;13.50;;
5042;SDS011;2540;50.928;6.856;2023-05-13T02:51:26;26.93;;;14.53;;
5042;SDS011;2540;50.928;6.856;2023-05-13T02:53:51;21.60;;;14.10;;
5042;SDS011;2540;50.928;6.856;2023-05-13T02:56:16;23.33;;;15.60;;
5042;SDS011;2540;50.928;6.856;2023-05-13T02:58:42;21.57;;;14.40;;
5042;SDS011;2540;50.928;6.856;2023-05-13T03:01:08;24.77;;;14.60;;
5042;SDS011;2540;50.928;6.856;2023-05-13T03:03:33;22.60;;;14.73;;
5042;SDS011;2540;50.928;6.856;2023-05-13T03:05:58;22.30;;;14.60;;
5042;SDS011;2540;50.928;6.856;2023-05-13T03:08:24;22.00;;;15.30;;
5042;SDS011;2540;50.928;6.856;2023-05-13T03:10:49;23.77;;;15.43;;
5042;SDS011;2540;50.928;6.856;2023-05-13T03:13:15;21.33;;;14.73;;
5042;SDS011;2540;50.928;6.856;2023-05-13T03:15:40;25.13;;;16.50;;
5042;SDS011;2540;50.928;6.856;2023-05-13T03:18:06;21.40;;;14.40;;
5042;SDS011;2540;50.928;6.856;2023-05-13T03:20:31;22.57;;;15.90;;
5042;SDS011;2540;50.928;6.856;2023-05-13T03:22:57;26.03;;;15.40;;
5042;SDS011;2540;50.928;6.856;2023-05-13T03:25:22;26.43;;;17.43;;
5042;SDS011;2540;50.928;6.856;2023-05-13T03:27:47;23.53;;;16.20;;
5042;SDS011;2540;50.928;6.856;2023-05-13T03:30:13;30.17;;;18.90;;
5042;SDS011;2540;50.928;6.856;2023-05-13T03:32:38;28.30;;;17.90;;
5042;SDS011;2540;50.928;6.856;2023-05-13T03:35:04;28.73;;;18.13;;
5042;SDS011;2540;50.928;6.856;2023-05-13T03:37:29;24.40;;;16.60;;
5042;SDS011;2540;50.928;6.856;2023-05-13T03:39:55;29.80;;;17.07;;
5042;SDS011;2540;50.928;6.856;2023-05-13T03:42:20;23.73;;;15.80;;
5042;SDS011;2540;50.928;6.856;2023-05-13T03:44:47;27.17;;;16.90;;
5042;SDS011;2540;50.928;6.856;2023-05-13T03:47:13;25.97;;;17.57;;
5042;SDS011;2540;50.928;6.856;2023-05-13T03:49:38;31.87;;;18.70;;
5042;SDS011;2540;50.928;6.856;2023-05-13T03:52:04;23.20;;;15.87;;
5042;SDS011;2540;50.928;6.856;2023-05-13T03:54:32;29.27;;;18.00;;
5042;SDS011;2540;50.928;6.856;2023-05-13T03:56:57;24.63;;;16.37;;
5042;SDS011;2540;50.928;6.856;2023-05-13T03:59:23;28.07;;;19.17;;
5042;SDS011;2540;50.928;6.856;2023-05-13T04:01:48;31.30;;;17.43;;
5042;SDS011;2540;50.928;6.856;2023-05-13T04:04:13;27.50;;;18.57;;
5042;SDS011;2540;50.928;6.856;2023-05-13T04:06:39;26.27;;;16.07;;
5042;SDS011;2540;50.928;6.856;2023-05-13T04:09:04;23.50;;;16.97;;
5042;SDS011;2540;50.928;6.856;2023-05-13T04:11:30;29.23;;;18.40;;
5042;SDS011;2540;50.928;6.856;2023-05-13T04:13:56;34.00;;;19.73;;
5042;SDS011;2540;50.928;6.856;2023-05-13T04:16:21;41.50;;;20.40;;
5042;SDS011;2540;50.928;6.856;2023-05-13T04:18:47;31.23;;;19.00;;
5042;SDS011;2540;50.928;6.856;2023-05-13T04:21:12;32.30;;;20.00;;
5042;SDS011;2540;50.928;6.856;2023-05-13T04:23:38;31.40;;;20.20;;
5042;SDS011;2540;50.928;6.856;2023-05-13T04:26:04;33.07;;;19.33;;
5042;SDS011;2540;50.928;6.856;2023-05-13T04:28:29;33.80;;;21.10;;
5042;SDS011;2540;50.928;6.856;2023-05-13T04:30:55;38.90;;;21.43;;
5042;SDS011;2540;50.928;6.856;2023-05-13T04:33:21;28.07;;;20.50;;
5042;SDS011;2540;50.928;6.856;2023-05-13T04:35:46;32.77;;;20.53;;
5042;SDS011;2540;50.928;6.856;2023-05-13T04:38:12;30.47;;;20.20;;
5042;SDS011;2540;50.928;6.856;2023-05-13T04:40:37;32.73;;;20.30;;
5042;SDS011;2540;50.928;6.856;2023-05-13T04:43:03;44.50;;;22.70;;
5042;SDS011;2540;50.928;6.856;2023-05-13T04:45:28;36.50;;;22.20;;
5042;SDS011;2540;50.928;6.856;2023-05-13T04:47:55;30.60;;;20.17;;
5042;SDS011;2540;50.928;6.856;2023-05-13T04:50:21;33.47;;;21.57;;
5042;SDS011;2540;50.928;6.856;2023-05-13T04:52:46;35.23;;;21.57;;
5042;SDS011;2540;50.928;6.856;2023-05-13T04:55:12;36.07;;;22.40;;
5042;SDS011;2540;50.928;6.856;2023-05-13T04:57:37;34.83;;;21.60;;
5042;SDS011;2540;50.928;6.856;2023-05-13T05:00:03;33.70;;;22.40;;
5042;SDS011;2540;50.928;6.856;2023-05-13T05:02:29;36.10;;;22.07;;
5042;SDS011;2540;50.928;6.856;2023-05-13T05:04:55;33.00;;;21.97;;
5042;SDS011;2540;50.928;6.856;2023-05-13T05:07:21;30.67;;;21.17;;
5042;SDS011;2540;50.928;6.856;2023-05-13T05:09:46;29.27;;;19.10;;
5042;SDS011;2540;50.928;6.856;2023-05-13T05:12:12;31.33;;;20.20;;
5042;SDS011;2540;50.928;6.856;2023-05-13T05:14:37;40.00;;;18.90;;
5042;SDS011;2540;50.928;6.856;2023-05-13T05:17:03;32.70;;;20.57;;
5042;SDS011;2540;50.928;6.856;2023-05-13T05:19:28;26.93;;;18.80;;
5042;SDS011;2540;50.928;6.856;2023-05-13T05:21:54;30.30;;;19.40;;
5042;SDS011;2540;50.928;6.856;2023-05-13T05:24:19;29.23;;;18.80;;
5042;SDS011;2540;50.928;6.856;2023-05-13T05:26:44;35.17;;;19.40;;
5042;SDS011;2540;50.928;6.856;2023-05-13T05:29:10;31.67;;;16.97;;
5042;SDS011;2540;50.928;6.856;2023-05-13T05:31:35;24.77;;;17.67;;
5042;SDS011;2540;50.928;6.856;2023-05-13T05:34:01;27.13;;;18.13;;
5042;SDS011;2540;50.928;6.856;2023-05-13T05:36:27;25.87;;;16.47;;
5042;SDS011;2540;50.928;6.856;2023-05-13T05:38:53;24.97;;;16.70;;
5042;SDS011;2540;50.928;6.856;2023-05-13T05:41:18;25.13;;;15.90;;
5042;SDS011;2540;50.928;6.856;2023-05-13T05:43:44;22.50;;;15.20;;
5042;SDS011;2540;50.928;6.856;2023-05-13T05:46:09;23.40;;;15.50;;
5042;SDS011;2540;50.928;6.856;2023-05-13T05:48:35;25.87;;;16.77;;
5042;SDS011;2540;50.928;6.856;2023-05-13T05:51:00;24.10;;;16.10;;
5042;SDS011;2540;50.928;6.856;2023-05-13T05:53:26;26.10;;;16.40;;
5042;SDS011;2540;50.928;6.856;2023-05-13T05:55:51;25.37;;;16.70;;
5042;SDS011;2540;50.928;6.856;2023-05-13T05:58:17;26.83;;;15.00;;
5042;SDS011;2540;50.928;6.856;2023-05-13T06:00:42;23.63;;;15.63;;
5042;SDS011;2540;50.928;6.856;2023-05-13T06:03:07;23.13;;;15.73;;
5042;SDS011;2540;50.928;6.856;2023-05-13T06:05:33;22.13;;;15.10;;
5042;SDS011;2540;50.928;6.856;2023-05-13T06:07:59;22.73;;;15.30;;
5042;SDS011;2540;50.928;6.856;2023-05-13T06:10:24;25.90;;;16.60;;
5042;SDS011;2540;50.928;6.856;2023-05-13T06:12:50;19.37;;;14.27;;
5042;SDS011;2540;50.928;6.856;2023-05-13T06:15:15;25.30;;;14.20;;
5042;SDS011;2540;50.928;6.856;2023-05-13T06:17:41;19.97;;;13.90;;
5042;SDS011;2540;50.928;6.856;2023-05-13T06:20:06;19.63;;;13.40;;
5042;SDS011;2540;50.928;6.856;2023-05-13T06:22:32;19.53;;;13.60;;
5042;SDS011;2540;50.928;6.856;2023-05-13T06:24:57;18.77;;;12.73;;
5042;SDS011;2540;50.928;6.856;2023-05-13T06:27:23;25.40;;;13.40;;
5042;SDS011;2540;50.928;6.856;2023-05-13T06:29:49;18.10;;;12.57;;
5042;SDS011;2540;50.928;6.856;2023-05-13T06:32:14;23.90;;;12.83;;
5042;SDS011;2540;50.928;6.856;2023-05-13T06:34:40;21.13;;;12.50;;
5042;SDS011;2540;50.928;6.856;2023-05-13T06:37:09;17.77;;;12.33;;
5042;SDS011;2540;50.928;6.856;2023-05-13T06:39:36;17.00;;;11.80;;
5042;SDS011;2540;50.928;6.856;2023-05-13T06:42:01;20.77;;;12.70;;
5042;SDS011;2540;50.928;6.856;2023-05-13T06:44:27;16.63;;;10.97;;
5042;SDS011;2540;50.928;6.856;2023-05-13T06:46:53;13.90;;;10.40;;
5042;SDS011;2540;50.928;6.856;2023-05-13T06:49:18;23.10;;;10.57;;
5042;SDS011;2540;50.928;6.856;2023-05-13T06:51:43;15.20;;;10.03;;
5042;SDS011;2540;50.928;6.856;2023-05-13T06:54:09;19.60;;;11.40;;
5042;SDS011;2540;50.928;6.856;2023-05-13T06:56:34;16.97;;;9.50;;
5042;SDS011;2540;50.928;6.856;2023-05-13T06:58:59;16.63;;;9.07;;
5042;SDS011;2540;50.928;6.856;2023-05-13T07:01:26;14.27;;;9.40;;
5042;SDS011;2540;50.928;6.856;2023-05-13T07:03:51;14.47;;;8.40;;
5042;SDS011;2540;50.928;6.856;2023-05-13T07:06:17;19.50;;;8.50;;
5042;SDS011;2540;50.928;6.856;2023-05-13T07:08:42;13.77;;;8.97;;
5042;SDS011;2540;50.928;6.856;2023-05-13T07:11:07;16.77;;;9.77;;
5042;SDS011;2540;50.928;6.856;2023-05-13T07:13:33;12.63;;;10.37;;
5042;SDS011;2540;50.928;6.856;2023-05-13T07:15:59;15.63;;;10.17;;
5042;SDS011;2540;50.928;6.856;2023-05-13T07:18:26;14.03;;;10.00;;
5042;SDS011;2540;50.928;6.856;2023-05-13T07:20:52;15.47;;;10.33;;
5042;SDS011;2540;50.928;6.856;2023-05-13T07:23:18;12.70;;;9.87;;
5042;SDS011;2540;50.928;6.856;2023-05-13T07:25:43;17.63;;;9.03;;
5042;SDS011;2540;50.928;6.856;2023-05-13T07:28:09;14.90;;;9.80;;
5042;SDS011;2540;50.928;6.856;2023-05-13T07:30:34;13.03;;;9.13;;
5042;SDS011;2540;50.928;6.856;2023-05-13T07:33:00;14.97;;;9.60;;
5042;SDS011;2540;50.928;6.856;2023-05-13T07:35:25;12.73;;;8.83;;
5042;SDS011;2540;50.928;6.856;2023-05-13T07:37:50;17.90;;;10.40;;
5042;SDS011;2540;50.928;6.856;2023-05-13T07:40:16;13.33;;;9.13;;
5042;SDS011;2540;50.928;6.856;2023-05-13T07:42:42;13.23;;;8.17;;
5042;SDS011;2540;50.928;6.856;2023-05-13T07:45:08;12.40;;;7.77;;
5042;SDS011;2540;50.928;6.856;2023-05-13T07:47:34;11.30;;;8.33;;
5042;SDS011;2540;50.928;6.856;2023-05-13T07:50:00;10.10;;;8.10;;
5042;SDS011;2540;50.928;6.856;2023-05-13T07:52:25;18.13;;;8.50;;
5042;SDS011;2540;50.928;6.856;2023-05-13T07:54:51;13.67;;;7.57;;
5042;SDS011;2540;50.928;6.856;2023-05-13T07:57:16;12.97;;;8.60;;
5042;SDS011;2540;50.928;6.856;2023-05-13T07:59:42;11.53;;;6.93;;
5042;SDS011;2540;50.928;6.856;2023-05-13T08:02:08;11.03;;;7.40;;
5042;SDS011;2540;50.928;6.856;2023-05-13T08:04:33;19.43;;;7.27;;
5042;SDS011;2540;50.928;6.856;2023-05-13T08:07:01;10.77;;;7.43;;
5042;SDS011;2540;50.928;6.856;2023-05-13T08:09:27;9.03;;;6.30;;
5042;SDS011;2540;50.928;6.856;2023-05-13T08:11:52;7.73;;;6.20;;
5042;SDS011;2540;50.928;6.856;2023-05-13T08:14:18;7.43;;;6.00;;
5042;SDS011;2540;50.928;6.856;2023-05-13T08:16:44;8.73;;;5.33;;
5042;SDS011;2540;50.928;6.856;2023-05-13T08:19:09;6.27;;;5.30;;
5042;SDS011;2540;50.928;6.856;2023-05-13T08:21:34;8.43;;;5.60;;
5042;SDS011;2540;50.928;6.856;2023-05-13T08:24:00;8.33;;;5.10;;
5042;SDS011;2540;50.928;6.856;2023-05-13T08:26:26;11.90;;;5.67;;
5042;SDS011;2540;50.928;6.856;2023-05-13T08:28:51;9.97;;;5.10;;
5042;SDS011;2540;50.928;6.856;2023-05-13T08:31:17;9.73;;;4.57;;
5042;SDS011;2540;50.928;6.856;2023-05-13T08:33:42;10.47;;;4.87;;
5042;SDS011;2540;50.928;6.856;2023-05-13T08:36:10;10.53;;;5.90;;
5042;SDS011;2540;50.928;6.856;2023-05-13T08:38:35;9.53;;;5.40;;
5042;SDS011;2540;50.928;6.856;2023-05-13T08:41:04;7.80;;;4.77;;
5042;SDS011;2540;50.928;6.856;2023-05-13T08:43:30;11.90;;;5.80;;
5042;SDS011;2540;50.928;6.856;2023-05-13T08:45:56;9.27;;;6.33;;
5042;SDS011;2540;50.928;6.856;2023-05-13T08:48:26;10.83;;;6.57;;
5042;SDS011;2540;50.928;6.856;2023-05-13T08:50:51;11.17;;;6.83;;
5042;SDS011;2540;50.928;6.856;2023-05-13T08:53:17;8.77;;;6.70;;
5042;SDS011;2540;50.928;6.856;2023-05-13T08:55:43;7.10;;;5.83;;
5042;SDS011;2540;50.928;6.856;2023-05-13T08:58:08;17.53;;;6.30;;
5042;SDS011;2540;50.928;6.856;2023-05-13T09:00:33;8.83;;;5.97;;
5042;SDS011;2540;50.928;6.856;2023-05-13T09:02:59;7.60;;;5.23;;
5042;SDS011;2540;50.928;6.856;2023-05-13T09:05:25;9.67;;;6.57;;
5042;SDS011;2540;50.928;6.856;2023-05-13T09:07:50;9.13;;;6.53;;
5042;SDS011;2540;50.928;6.856;2023-05-13T09:10:16;10.23;;;7.13;;
5042;SDS011;2540;50.928;6.856;2023-05-13T09:15:09;11.17;;;6.73;;
5042;SDS011;2540;50.928;6.856;2023-05-13T09:17:38;13.53;;;6.43;;
5042;SDS011;2540;50.928;6.856;2023-05-13T09:20:07;12.10;;;5.80;;
5042;SDS011;2540;50.928;6.856;2023-05-13T09:22:33;10.77;;;6.17;;
5042;SDS011;2540;50.928;6.856;2023-05-13T09:24:59;9.00;;;6.17;;
5042;SDS011;2540;50.928;6.856;2023-05-13T09:27:37;10.73;;;5.20;;
5042;SDS011;2540;50.928;6.856;2023-05-13T09:30:04;9.10;;;5.60;;
5042;SDS011;2540;50.928;6.856;2023-05-13T09:32:30;9.43;;;5.67;;
5042;SDS011;2540;50.928;6.856;2023-05-13T09:34:56;7.57;;;5.80;;
5042;SDS011;2540;50.928;6.856;2023-05-13T09:37:22;9.07;;;5.83;;
5042;SDS011;2540;50.928;6.856;2023-05-13T09:39:49;12.53;;;6.07;;
5042;SDS011;2540;50.928;6.856;2023-05-13T09:42:16;8.13;;;5.40;;
5042;SDS011;2540;50.928;6.856;2023-05-13T09:44:45;13.40;;;6.23;;
5042;SDS011;2540;50.928;6.856;2023-05-13T09:47:15;11.03;;;6.50;;
5042;SDS011;2540;50.928;6.856;2023-05-13T09:49:41;10.40;;;6.03;;
5042;SDS011;2540;50.928;6.856;2023-05-13T09:52:08;12.00;;;6.40;;
5042;SDS011;2540;50.928;6.856;2023-05-13T09:54:37;11.43;;;6.13;;
5042;SDS011;2540;50.928;6.856;2023-05-13T09:57:02;10.27;;;6.10;;
5042;SDS011;2540;50.928;6.856;2023-05-13T09:59:32;11.13;;;6.97;;
5042;SDS011;2540;50.928;6.856;2023-05-13T10:01:58;10.83;;;6.87;;
5042;SDS011;2540;50.928;6.856;2023-05-13T10:04:24;14.73;;;6.83;;
5042;SDS011;2540;50.928;6.856;2023-05-13T10:06:50;11.03;;;6.80;;
5042;SDS011;2540;50.928;6.856;2023-05-13T10:09:15;10.17;;;7.10;;
5042;SDS011;2540;50.928;6.856;2023-05-13T10:11:41;11.67;;;8.47;;
5042;SDS011;2540;50.928;6.856;2023-05-13T10:14:09;14.33;;;7.50;;
5042;SDS011;2540;50.928;6.856;2023-05-13T10:16:35;11.73;;;8.20;;
5042;SDS011;2540;50.928;6.856;2023-05-13T10:19:01;13.93;;;7.67;;
5042;SDS011;2540;50.928;6.856;2023-05-13T10:21:28;12.40;;;7.43;;
5042;SDS011;2540;50.928;6.856;2023-05-13T10:23:53;11.00;;;6.70;;
5042;SDS011;2540;50.928;6.856;2023-05-13T10:26:20;10.70;;;7.60;;
5042;SDS011;2540;50.928;6.856;2023-05-13T10:28:48;16.60;;;7.47;;
5042;SDS011;2540;50.928;6.856;2023-05-13T10:31:17;10.33;;;8.03;;
5042;SDS011;2540;50.928;6.856;2023-05-13T10:33:43;17.80;;;8.80;;
5042;SDS011;2540;50.928;6.856;2023-05-13T10:36:19;10.50;;;7.30;;
5042;SDS011;2540;50.928;6.856;2023-05-13T10:44:09;13.23;;;8.27;;
5042;SDS011;2540;50.928;6.856;2023-05-13T10:46:34;13.53;;;7.50;;
5042;SDS011;2540;50.928;6.856;2023-05-13T10:49:03;13.13;;;6.60;;
5042;SDS011;2540;50.928;6.856;2023-05-13T10:51:28;10.43;;;6.53;;
5042;SDS011;2540;50.928;6.856;2023-05-13T10:53:54;10.83;;;6.20;;
5042;SDS011;2540;50.928;6.856;2023-05-13T10:56:22;7.40;;;5.50;;
5042;SDS011;2540;50.928;6.856;2023-05-13T10:59:04;11.90;;;7.10;;
5042;SDS011;2540;50.928;6.856;2023-05-13T11:01:34;11.37;;;6.80;;
5042;SDS011;2540;50.928;6.856;2023-05-13T11:04:11;26.63;;;5.80;;
5042;SDS011;2540;50.928;6.856;2023-05-13T11:06:41;11.23;;;6.20;;
5042;SDS011;2540;50.928;6.856;2023-05-13T11:09:16;9.07;;;7.10;;
5042;SDS011;2540;50.928;6.856;2023-05-13T11:11:54;11.53;;;6.57;;
5042;SDS011;2540;50.928;6.856;2023-05-13T11:14:24;8.77;;;6.40;;
5042;SDS011;2540;50.928;6.856;2023-05-13T11:17:06;8.77;;;6.03;;
5042;SDS011;2540;50.928;6.856;2023-05-13T11:19:36;13.33;;;6.63;;
5042;SDS011;2540;50.928;6.856;2023-05-13T11:22:04;21.17;;;7.77;;
5042;SDS011;2540;50.928;6.856;2023-05-13T11:24:34;15.90;;;8.00;;
5042;SDS011;2540;50.928;6.856;2023-05-13T11:27:11;13.57;;;8.30;;
5042;SDS011;2540;50.928;6.856;2023-05-13T11:29:47;13.80;;;7.43;;
5042;SDS011;2540;50.928;6.856;2023-05-13T11:35:19;9.10;;;7.00;;
5042;SDS011;2540;50.928;6.856;2023-05-13T11:37:45;13.53;;;6.90;;
5042;SDS011;2540;50.928;6.856;2023-05-13T11:40:20;12.20;;;7.00;;
5042;SDS011;2540;50.928;6.856;2023-05-13T11:42:49;5.80;;;4.00;;
5042;SDS011;2540;50.928;6.856;2023-05-13T11:45:18;3.43;;;2.63;;
5042;SDS011;2540;50.928;6.856;2023-05-13T11:47:44;6.00;;;3.03;;
5042;SDS011;2540;50.928;6.856;2023-05-13T11:50:19;2.80;;;2.60;;
5042;SDS011;2540;50.928;6.856;2023-05-13T11:52:57;7.70;;;2.90;;
5042;SDS011;2540;50.928;6.856;2023-05-13T11:57:56;2.50;;;2.03;;
5042;SDS011;2540;50.928;6.856;2023-05-13T12:00:26;2.50;;;2.30;;
5042;SDS011;2540;50.928;6.856;2023-05-13T12:02:56;4.73;;;2.83;;
5042;SDS011;2540;50.928;6.856;2023-05-13T12:05:22;4.77;;;2.10;;
5042;SDS011;2540;50.928;6.856;2023-05-13T12:07:48;5.47;;;2.77;;
5042;SDS011;2540;50.928;6.856;2023-05-13T12:10:14;5.17;;;2.77;;
5042;SDS011;2540;50.928;6.856;2023-05-13T12:12:40;5.47;;;2.90;;
5042;SDS011;2540;50.928;6.856;2023-05-13T12:15:17;5.73;;;2.90;;
5042;SDS011;2540;50.928;6.856;2023-05-13T12:17:43;5.23;;;2.50;;
5042;SDS011;2540;50.928;6.856;2023-05-13T12:22:56;8.37;;;3.03;;
5042;SDS011;2540;50.928;6.856;2023-05-13T12:28:24;7.47;;;3.57;;
5042;SDS011;2540;50.928;6.856;2023-05-13T12:30:54;7.20;;;3.40;;
5042;SDS011;2540;50.928;6.856;2023-05-13T12:33:39;6.10;;;3.70;;
5042;SDS011;2540;50.928;6.856;2023-05-13T12:41:39;4.20;;;2.80;;
5042;SDS011;2540;50.928;6.856;2023-05-13T12:44:12;4.40;;;2.67;;
5042;SDS011;2540;50.928;6.856;2023-05-13T12:46:47;3.97;;;3.20;;
5042;SDS011;2540;50.928;6.856;2023-05-13T12:49:14;6.30;;;2.77;;
5042;SDS011;2540;50.928;6.856;2023-05-13T12:51:39;4.30;;;2.67;;
5042;SDS011;2540;50.928;6.856;2023-05-13T12:54:05;5.93;;;3.03;;
5042;SDS011;2540;50.928;6.856;2023-05-13T12:56:30;13.57;;;3.20;;
5042;SDS011;2540;50.928;6.856;2023-05-13T12:58:56;7.50;;;2.90;;
5042;SDS011;2540;50.928;6.856;2023-05-13T13:01:22;5.60;;;3.30;;
5042;SDS011;2540;50.928;6.856;2023-05-13T13:03:48;3.67;;;2.90;;
5042;SDS011;2540;50.928;6.856;2023-05-13T13:06:14;3.40;;;2.70;;
5042;SDS011;2540;50.928;6.856;2023-05-13T13:08:39;3.23;;;2.50;;
5042;SDS011;2540;50.928;6.856;2023-05-13T13:11:05;4.53;;;2.90;;
5042;SDS011;2540;50.928;6.856;2023-05-13T13:13:31;3.97;;;2.87;;
5042;SDS011;2540;50.928;6.856;2023-05-13T13:15:57;5.00;;;2.50;;
5042;SDS011;2540;50.928;6.856;2023-05-13T13:18:23;3.50;;;2.60;;
5042;SDS011;2540;50.928;6.856;2023-05-13T13:20:49;5.50;;;3.10;;
5042;SDS011;2540;50.928;6.856;2023-05-13T13:23:15;5.27;;;2.70;;
5042;SDS011;2540;50.928;6.856;2023-05-13T13:25:41;12.00;;;3.10;;
5042;SDS011;2540;50.928;6.856;2023-05-13T13:28:07;3.33;;;2.70;;
5042;SDS011;2540;50.928;6.856;2023-05-13T13:30:32;4.83;;;2.70;;
5042;SDS011;2540;50.928;6.856;2023-05-13T13:32:58;3.27;;;2.30;;
5042;SDS011;2540;50.928;6.856;2023-05-13T13:35:23;9.43;;;2.70;;
5042;SDS011;2540;50.928;6.856;2023-05-13T13:37:48;4.67;;;2.70;;
5042;SDS011;2540;50.928;6.856;2023-05-13T13:40:14;2.43;;;2.10;;
5042;SDS011;2540;50.928;6.856;2023-05-13T13:42:39;7.80;;;2.40;;
5042;SDS011;2540;50.928;6.856;2023-05-13T13:45:05;4.33;;;2.37;;
5042;SDS011;2540;50.928;6.856;2023-05-13T13:47:30;12.23;;;2.40;;
5042;SDS011;2540;50.928;6.856;2023-05-13T13:49:56;2.97;;;2.20;;
5042;SDS011;2540;50.928;6.856;2023-05-13T13:52:22;3.10;;;2.30;;
5042;SDS011;2540;50.928;6.856;2023-05-13T13:54:50;3.63;;;2.30;;
5042;SDS011;2540;50.928;6.856;2023-05-13T13:57:16;3.73;;;2.37;;
5042;SDS011;2540;50.928;6.856;2023-05-13T13:59:41;4.10;;;2.60;;
5042;SDS011;2540;50.928;6.856;2023-05-13T14:02:06;4.90;;;2.70;;
5042;SDS011;2540;50.928;6.856;2023-05-13T14:04:32;3.33;;;2.83;;
5042;SDS011;2540;50.928;6.856;2023-05-13T14:06:57;4.37;;;2.73;;
5042;SDS011;2540;50.928;6.856;2023-05-13T14:09:23;3.73;;;2.73;;
5042;SDS011;2540;50.928;6.856;2023-05-13T14:11:49;5.80;;;3.30;;
5042;SDS011;2540;50.928;6.856;2023-05-13T14:14:14;6.70;;;2.97;;
5042;SDS011;2540;50.928;6.856;2023-05-13T14:16:39;7.60;;;3.63;;
5042;SDS011;2540;50.928;6.856;2023-05-13T14:19:05;3.87;;;2.83;;
5042;SDS011;2540;50.928;6.856;2023-05-13T14:21:30;4.03;;;2.80;;
5042;SDS011;2540;50.928;6.856;2023-05-13T14:23:56;4.27;;;3.03;;
5042;SDS011;2540;50.928;6.856;2023-05-13T14:26:21;3.33;;;2.50;;
5042;SDS011;2540;50.928;6.856;2023-05-13T14:28:47;10.13;;;3.87;;
5042;SDS011;2540;50.928;6.856;2023-05-13T14:31:12;7.47;;;2.97;;
5042;SDS011;2540;50.928;6.856;2023-05-13T14:33:37;3.90;;;2.60;;
5042;SDS011;2540;50.928;6.856;2023-05-13T14:36:03;3.50;;;3.10;;
5042;SDS011;2540;50.928;6.856;2023-05-13T14:38:29;4.63;;;3.33;;
5042;SDS011;2540;50.928;6.856;2023-05-13T14:40:55;3.10;;;2.80;;
5042;SDS011;2540;50.928;6.856;2023-05-13T14:43:21;4.50;;;2.70;;
5042;SDS011;2540;50.928;6.856;2023-05-13T14:45:47;5.70;;;2.63;;
5042;SDS011;2540;50.928;6.856;2023-05-13T14:48:12;6.67;;;2.93;;
5042;SDS011;2540;50.928;6.856;2023-05-13T14:50:38;3.87;;;2.40;;
5042;SDS011;2540;50.928;6.856;2023-05-13T14:53:03;3.90;;;2.60;;
5042;SDS011;2540;50.928;6.856;2023-05-13T14:55:29;6.03;;;2.70;;
5042;SDS011;2540;50.928;6.856;2023-05-13T14:57:54;3.70;;;2.73;;
5042;SDS011;2540;50.928;6.856;2023-05-13T15:00:20;4.30;;;2.33;;
5042;SDS011;2540;50.928;6.856;2023-05-13T15:02:45;5.07;;;3.17;;
5042;SDS011;2540;50.928;6.856;2023-05-13T15:05:10;4.43;;;2.87;;
5042;SDS011;2540;50.928;6.856;2023-05-13T15:07:36;5.63;;;2.70;;
5042;SDS011;2540;50.928;6.856;2023-05-13T15:10:02;5.60;;;2.80;;
5042;SDS011;2540;50.928;6.856;2023-05-13T15:12:28;7.10;;;2.80;;
5042;SDS011;2540;50.928;6.856;2023-05-13T15:14:53;5.93;;;3.00;;
5042;SDS011;2540;50.928;6.856;2023-05-13T15:17:19;5.23;;;2.60;;
5042;SDS011;2540;50.928;6.856;2023-05-13T15:19:45;6.10;;;3.10;;
5042;SDS011;2540;50.928;6.856;2023-05-13T15:22:10;4.03;;;2.60;;
5042;SDS011;2540;50.928;6.856;2023-05-13T15:24:36;7.10;;;2.47;;
5042;SDS011;2540;50.928;6.856;2023-05-13T15:27:02;4.07;;;2.90;;